createdAt,value
2022-08-18T00:01:25.255Z,99.90
2022-08-18T00:03:55.640Z,99.90
2022-08-18T00:06:24.474Z,99.90
2022-08-18T00:08:57.211Z,99.90
2022-08-18T00:11:24.431Z,99.90
2022-08-18T00:13:51.386Z,99.90
2022-08-18T00:16:18.269Z,99.90
2022-08-18T00:18:45.241Z,99.90
2022-08-18T00:21:12.293Z,99.90
2022-08-18T00:23:39.266Z,99.90
2022-08-18T00:26:06.438Z,99.90
2022-08-18T00:28:34.502Z,99.90
2022-08-18T00:31:01.584Z,99.70
2022-08-18T00:33:28.539Z,99.90
2022-08-18T00:35:56.598Z,99.90
2022-08-18T00:38:24.800Z,99.90
2022-08-18T00:40:55.034Z,99.90
2022-08-18T00:43:46.014Z,99.90
2022-08-18T00:46:19.346Z,99.90
2022-08-18T00:48:48.894Z,99.90
2022-08-18T00:51:29.635Z,99.90
2022-08-18T00:54:02.156Z,99.90
2022-08-18T00:56:37.209Z,99.90
2022-08-18T00:59:50.256Z,99.90
2022-08-18T01:02:41.050Z,99.90
2022-08-18T01:05:23.082Z,99.90
2022-08-18T01:07:51.876Z,99.90
2022-08-18T01:10:23.386Z,99.90
2022-08-18T01:12:53.846Z,99.90
2022-08-18T01:15:29.634Z,99.90
2022-08-18T01:18:26.050Z,99.90
2022-08-18T01:21:20.572Z,99.90
2022-08-18T01:23:49.318Z,99.90
2022-08-18T01:26:18.341Z,99.90
2022-08-18T01:28:46.943Z,99.90
2022-08-18T01:31:34.266Z,99.90
2022-08-18T01:34:01.346Z,99.90
2022-08-18T01:36:30.394Z,99.90
2022-08-18T01:38:57.554Z,99.90
2022-08-18T01:41:30.090Z,99.90
2022-08-18T01:43:59.645Z,99.90
2022-08-18T01:46:28.970Z,99.90
2022-08-18T01:48:56.537Z,99.90
2022-08-18T01:51:39.406Z,99.90
2022-08-18T01:54:13.072Z,99.90
2022-08-18T01:56:42.421Z,99.90
2022-08-18T01:59:14.039Z,99.90
2022-08-18T02:01:50.636Z,99.90
2022-08-18T02:04:34.971Z,99.90
2022-08-18T02:07:11.748Z,99.90
2022-08-18T02:09:41.217Z,99.90
2022-08-18T02:12:09.188Z,99.90
2022-08-18T02:14:36.829Z,99.90
2022-08-18T02:17:07.790Z,99.90
2022-08-18T02:19:38.784Z,99.90
2022-08-18T02:22:08.281Z,99.90
2022-08-18T02:24:35.843Z,99.90
2022-08-18T02:27:03.231Z,99.90
2022-08-18T02:29:30.155Z,99.90
2022-08-18T02:31:57.175Z,99.90
2022-08-18T02:34:24.123Z,99.90
2022-08-18T02:36:51.491Z,99.90
2022-08-18T02:39:19.503Z,99.90
2022-08-18T02:41:46.899Z,99.90
2022-08-18T02:44:14.305Z,99.90
2022-08-18T02:46:41.390Z,99.90
2022-08-18T02:49:08.424Z,99.90
2022-08-18T02:51:35.870Z,99.90
2022-08-18T02:54:03.314Z,99.90
2022-08-18T02:56:32.836Z,99.90
2022-08-18T02:59:13.950Z,99.90
2022-08-18T03:01:46.724Z,99.90
2022-08-18T03:04:17.586Z,99.90
2022-08-18T03:06:45.911Z,99.90
2022-08-18T03:09:15.808Z,99.90
2022-08-18T03:11:43.618Z,99.90
2022-08-18T03:14:11.918Z,99.90
2022-08-18T03:16:52.768Z,99.90
2022-08-18T03:19:23.840Z,99.90
2022-08-18T03:21:51.166Z,99.90
2022-08-18T03:24:22.742Z,99.90
2022-08-18T03:26:52.806Z,99.90
2022-08-18T03:29:21.474Z,99.90
2022-08-18T03:31:49.191Z,99.90
2022-08-18T03:34:19.784Z,99.90
2022-08-18T03:36:49.947Z,99.90
2022-08-18T03:39:18.530Z,99.90
2022-08-18T03:41:58.001Z,99.90
2022-08-18T03:44:33.206Z,99.90
2022-08-18T03:47:03.638Z,99.90
2022-08-18T03:49:33.656Z,99.90
2022-08-18T03:52:01.741Z,99.90
2022-08-18T03:54:32.281Z,99.90
2022-08-18T03:57:00.381Z,99.90
2022-08-18T03:59:30.606Z,99.90
2022-08-18T04:01:57.991Z,99.90
2022-08-18T04:04:28.292Z,99.90
2022-08-18T04:07:04.620Z,99.90
2022-08-18T04:09:33.059Z,99.90
2022-08-18T04:12:15.543Z,99.90
2022-08-18T04:14:48.430Z,99.90
2022-08-18T04:17:24.355Z,99.90
2022-08-18T04:19:55.918Z,99.90
2022-08-18T04:22:25.311Z,99.90
2022-08-18T04:24:52.558Z,99.90
2022-08-18T04:27:21.563Z,99.90
2022-08-18T04:29:49.164Z,99.90
2022-08-18T04:32:16.843Z,99.90
2022-08-18T04:34:44.399Z,99.90
2022-08-18T04:37:13.934Z,99.90
2022-08-18T04:39:41.710Z,99.90
2022-08-18T04:42:09.115Z,99.90
2022-08-18T04:44:37.965Z,99.90
2022-08-18T04:47:07.868Z,99.90
2022-08-18T04:49:35.766Z,99.90
2022-08-18T04:52:39.827Z,99.90
2022-08-18T04:55:10.236Z,99.90
2022-08-18T04:57:37.424Z,99.90
2022-08-18T05:00:08.386Z,99.90
2022-08-18T05:02:35.624Z,99.90
2022-08-18T05:05:04.112Z,99.90
2022-08-18T05:07:31.386Z,99.90
2022-08-18T05:09:59.066Z,99.90
2022-08-18T05:12:26.817Z,99.90
2022-08-18T05:14:56.974Z,99.90
2022-08-18T05:17:30.030Z,99.90
2022-08-18T05:20:01.929Z,99.90
2022-08-18T05:22:31.130Z,99.90
2022-08-18T05:25:00.128Z,99.90
2022-08-18T05:27:35.828Z,99.90
2022-08-18T05:30:04.777Z,99.90
2022-08-18T05:32:49.230Z,99.90
2022-08-18T05:35:26.794Z,99.90
2022-08-18T05:38:21.295Z,99.90
2022-08-18T05:41:06.153Z,99.90
2022-08-18T05:43:34.444Z,99.90
2022-08-18T05:46:05.308Z,99.90
2022-08-18T05:48:33.749Z,99.90
2022-08-18T05:51:18.105Z,99.90
2022-08-18T05:54:04.286Z,99.90
2022-08-18T05:56:48.531Z,99.90
2022-08-18T05:59:31.335Z,99.90
2022-08-18T06:02:51.830Z,99.90
2022-08-18T06:05:31.636Z,99.90
2022-08-18T06:08:12.809Z,99.90
2022-08-18T06:10:45.711Z,99.90
2022-08-18T06:13:13.382Z,99.90
2022-08-18T06:16:29.134Z,99.90
2022-08-18T06:19:20.643Z,99.90
2022-08-18T06:22:14.842Z,99.90
2022-08-18T06:25:09.477Z,99.90
2022-08-18T06:28:06.251Z,99.90
2022-08-18T06:31:02.126Z,99.90
2022-08-18T06:34:12.331Z,99.90
2022-08-18T06:37:09.685Z,99.90
2022-08-18T06:39:52.034Z,99.90
2022-08-18T06:42:26.326Z,99.90
2022-08-18T06:45:07.231Z,99.90
2022-08-18T06:47:47.641Z,99.90
2022-08-18T06:50:51.030Z,99.90
2022-08-18T06:53:27.455Z,99.90
2022-08-18T06:55:56.373Z,99.90
2022-08-18T06:58:30.520Z,99.90
2022-08-18T07:01:06.577Z,99.90
2022-08-18T07:03:36.667Z,99.90
2022-08-18T07:06:12.901Z,99.90
2022-08-18T07:08:43.321Z,99.90
2022-08-18T07:11:25.470Z,99.90
2022-08-18T07:14:16.802Z,99.90
2022-08-18T07:16:58.258Z,99.90
2022-08-18T07:19:30.931Z,99.90
2022-08-18T07:22:18.254Z,99.90
2022-08-18T07:24:48.817Z,99.90
2022-08-18T07:27:21.774Z,99.90
2022-08-18T07:30:07.742Z,99.90
2022-08-18T07:33:02.389Z,99.90
2022-08-18T07:35:49.518Z,99.90
2022-08-18T07:38:57.205Z,99.90
2022-08-18T07:41:32.698Z,99.90
2022-08-18T07:44:18.572Z,99.90
2022-08-18T07:46:55.638Z,99.90
2022-08-18T07:49:25.227Z,99.90
2022-08-18T07:52:44.480Z,99.90
2022-08-18T07:55:32.940Z,99.90
2022-08-18T07:58:30.033Z,99.90
2022-08-18T08:01:18.069Z,99.90
2022-08-18T08:03:47.431Z,99.90
2022-08-18T08:06:47.707Z,99.90
2022-08-18T08:09:53.059Z,99.90
2022-08-18T08:12:39.911Z,99.90
2022-08-18T08:15:36.249Z,99.90
2022-08-18T08:18:37.918Z,99.90
2022-08-18T08:21:20.815Z,99.90
2022-08-18T08:24:19.802Z,99.90
2022-08-18T08:27:26.609Z,99.90
2022-08-18T08:30:09.338Z,99.90
2022-08-18T08:32:41.747Z,99.90
2022-08-18T08:35:47.052Z,99.90
2022-08-18T08:38:39.064Z,99.70
2022-08-18T08:41:11.097Z,99.60
2022-08-18T08:43:45.602Z,99.20
2022-08-18T08:46:29.974Z,99.30
2022-08-18T08:49:15.510Z,99.40
2022-08-18T08:51:50.713Z,98.40
2022-08-18T08:54:31.250Z,98.30
2022-08-18T08:57:01.543Z,98.50
2022-08-18T08:59:28.777Z,98.10
2022-08-18T09:02:32.270Z,98.40
2022-08-18T09:05:13.733Z,98.60
2022-08-18T09:08:21.587Z,98.20
2022-08-18T09:11:01.359Z,97.50
2022-08-18T09:13:34.017Z,97.60
2022-08-18T09:16:34.722Z,97.10
2022-08-18T09:19:46.126Z,97.30
2022-08-18T09:22:45.318Z,97.20
2022-08-18T09:25:42.071Z,96.90
2022-08-18T09:28:21.409Z,95.70
2022-08-18T09:31:08.516Z,95.70
2022-08-18T09:33:45.407Z,95.90
2022-08-18T09:36:49.939Z,95.50
2022-08-18T09:40:25.973Z,95.70
2022-08-18T09:43:39.405Z,94.30
2022-08-18T09:46:08.698Z,94.80
2022-08-18T09:48:43.221Z,94.00
2022-08-18T09:51:18.270Z,94.30
2022-08-18T09:53:46.160Z,94.90
2022-08-18T09:56:38.644Z,94.70
2022-08-18T09:59:34.320Z,94.90
2022-08-18T10:02:06.432Z,94.10
2022-08-18T10:04:51.305Z,93.60
2022-08-18T10:07:43.497Z,94.30
2022-08-18T10:11:02.543Z,92.50
2022-08-18T10:13:39.091Z,92.30
2022-08-18T10:17:24.007Z,92.30
2022-08-18T10:20:25.882Z,91.80
2022-08-18T10:22:54.882Z,91.40
2022-08-18T10:25:39.696Z,91.30
2022-08-18T10:28:32.506Z,91.70
2022-08-18T10:31:09.771Z,91.50
2022-08-18T10:34:16.509Z,90.20
2022-08-18T10:37:16.952Z,90.10
2022-08-18T10:40:14.168Z,88.50
2022-08-18T10:43:56.030Z,87.30
2022-08-18T10:49:25.987Z,84.50
2022-08-18T10:52:18.892Z,85.40
2022-08-18T10:55:10.233Z,80.20
2022-08-18T10:58:01.785Z,82.20
2022-08-18T11:01:02.541Z,80.90
2022-08-18T11:04:10.001Z,78.00
2022-08-18T11:06:48.138Z,77.70
2022-08-18T11:09:28.739Z,77.50
2022-08-18T11:12:01.894Z,77.90
2022-08-18T11:15:01.443Z,75.90
2022-08-18T11:17:48.242Z,76.60
2022-08-18T11:20:18.503Z,76.00
2022-08-18T11:22:57.242Z,75.00
2022-08-18T11:25:29.169Z,72.30
2022-08-18T11:27:56.843Z,70.20
2022-08-18T11:33:22.787Z,70.20
2022-08-18T11:35:59.294Z,64.40
2022-08-18T11:38:31.602Z,65.20
2022-08-18T11:41:20.747Z,66.20
2022-08-18T11:43:50.774Z,66.00
2022-08-18T11:46:21.004Z,60.90
2022-08-18T11:48:55.474Z,63.00
2022-08-18T11:51:33.091Z,64.30
2022-08-18T11:54:24.601Z,59.20
2022-08-18T11:56:51.865Z,59.20
2022-08-18T11:59:53.897Z,59.80
2022-08-18T12:02:20.904Z,59.40
2022-08-18T12:05:02.991Z,58.70
2022-08-18T12:07:37.317Z,59.60
2022-08-18T12:10:26.193Z,59.30
2022-08-18T12:12:57.546Z,57.00
2022-08-18T12:15:44.216Z,52.40
2022-08-18T12:18:26.001Z,52.70
2022-08-18T12:20:58.416Z,53.60
2022-08-18T12:23:26.103Z,51.70
2022-08-18T12:25:53.067Z,50.60
2022-08-18T12:28:22.170Z,51.90
2022-08-18T12:30:56.124Z,52.30
2022-08-18T12:33:25.249Z,52.20
2022-08-18T12:35:52.716Z,51.40
2022-08-18T12:38:19.652Z,50.00
2022-08-18T12:40:46.551Z,50.80
2022-08-18T12:43:13.518Z,48.00
2022-08-18T12:45:41.458Z,49.20
2022-08-18T12:48:08.936Z,50.10
2022-08-18T12:50:50.036Z,50.40
2022-08-18T12:53:29.571Z,51.20
2022-08-18T12:56:30.543Z,50.10
2022-08-18T12:59:04.133Z,51.90
2022-08-18T13:01:33.432Z,52.80
2022-08-18T13:04:10.944Z,53.40
2022-08-18T13:07:00.228Z,52.40
2022-08-18T13:09:42.840Z,52.70
2022-08-18T13:12:20.410Z,50.30
2022-08-18T13:14:48.632Z,51.50
2022-08-18T13:17:29.528Z,50.20
2022-08-18T13:20:06.440Z,49.20
2022-08-18T13:22:35.905Z,51.60
2022-08-18T13:25:07.210Z,52.70
2022-08-18T13:27:37.580Z,52.50
2022-08-18T13:30:16.812Z,51.30
2022-08-18T13:33:00.423Z,52.00
2022-08-18T13:35:38.477Z,49.30
2022-08-18T13:38:22.128Z,50.70
2022-08-18T13:40:56.516Z,49.50
2022-08-18T13:43:32.087Z,50.60
2022-08-18T13:45:59.834Z,51.00
2022-08-18T13:48:28.318Z,52.20
2022-08-18T13:50:59.986Z,51.00
2022-08-18T13:53:31.513Z,49.80
2022-08-18T13:55:59.282Z,49.20
2022-08-18T13:58:28.437Z,50.50
2022-08-18T14:01:39.497Z,49.50
2022-08-18T14:03:52.377Z,51.20
2022-08-18T14:06:22.751Z,51.90
2022-08-18T14:08:52.509Z,51.90
2022-08-18T14:11:23.552Z,51.10
2022-08-18T14:13:54.605Z,52.00
2022-08-18T14:16:26.757Z,52.80
2022-08-18T14:19:14.061Z,53.70
2022-08-18T14:22:11.136Z,53.40
2022-08-18T14:25:00.302Z,52.90
2022-08-18T14:27:36.956Z,55.10
2022-08-18T14:30:12.360Z,55.40
2022-08-18T14:32:49.061Z,55.30
2022-08-18T14:35:33.017Z,54.70
2022-08-18T14:38:02.635Z,55.20
2022-08-18T14:40:32.137Z,55.10
2022-08-18T14:42:59.627Z,55.00
2022-08-18T14:45:35.185Z,54.30
2022-08-18T14:48:07.546Z,53.60
2022-08-18T14:50:40.062Z,53.30
2022-08-18T14:53:14.041Z,52.00
2022-08-18T14:55:43.179Z,52.00
2022-08-18T14:58:11.320Z,52.70
2022-08-18T15:00:50.084Z,51.60
2022-08-18T15:03:31.173Z,52.00
2022-08-18T15:06:00.796Z,53.50
2022-08-18T15:08:35.345Z,54.00
2022-08-18T15:11:06.087Z,52.90
2022-08-18T15:13:41.842Z,52.70
2022-08-18T15:16:13.513Z,51.90
2022-08-18T15:18:43.002Z,49.00
2022-08-18T15:21:35.366Z,49.40
2022-08-18T15:24:25.815Z,50.00
2022-08-18T15:26:57.453Z,49.60
2022-08-18T15:29:29.280Z,47.50
2022-08-18T15:32:05.200Z,48.20
2022-08-18T15:34:47.256Z,47.70
2022-08-18T15:37:22.226Z,47.30
2022-08-18T15:40:02.809Z,50.10
2022-08-18T15:42:29.985Z,52.10
2022-08-18T15:45:11.665Z,51.50
2022-08-18T15:47:40.637Z,52.20
2022-08-18T15:50:21.840Z,52.20
2022-08-18T15:53:00.619Z,53.40
2022-08-18T15:55:35.841Z,55.30
2022-08-18T15:58:03.271Z,56.70
2022-08-18T16:00:42.407Z,57.20
2022-08-18T16:03:16.577Z,58.00
2022-08-18T16:05:54.488Z,58.90
2022-08-18T16:08:25.216Z,57.70
2022-08-18T16:10:54.165Z,58.30
2022-08-18T16:13:21.696Z,56.10
2022-08-18T16:15:49.946Z,55.10
2022-08-18T16:18:21.084Z,56.40
2022-08-18T16:20:48.139Z,57.30
2022-08-18T16:23:17.774Z,57.70
2022-08-18T16:25:45.797Z,57.60
2022-08-18T16:28:13.395Z,57.70
2022-08-18T16:30:41.191Z,58.40
2022-08-18T16:33:08.227Z,58.10
2022-08-18T16:35:37.564Z,57.70
2022-08-18T16:38:08.893Z,56.30
2022-08-18T16:40:37.393Z,56.60
2022-08-18T16:43:06.706Z,58.00
2022-08-18T16:45:36.902Z,59.80
2022-08-18T16:48:04.430Z,59.40
2022-08-18T16:50:31.390Z,60.40
2022-08-18T16:52:58.365Z,59.40
2022-08-18T16:55:25.442Z,61.20
2022-08-18T16:58:15.267Z,60.80
2022-08-18T17:01:01.512Z,61.20
2022-08-18T17:03:47.318Z,61.10
2022-08-18T17:06:18.267Z,63.30
2022-08-18T17:08:47.281Z,64.40
2022-08-18T17:11:19.082Z,60.90
2022-08-18T17:13:50.775Z,64.70
2022-08-18T17:16:20.102Z,69.30
2022-08-18T17:18:47.284Z,69.20
2022-08-18T17:21:19.284Z,70.40
2022-08-18T17:23:46.990Z,74.50
2022-08-18T17:26:51.794Z,75.10
2022-08-18T17:29:28.842Z,77.40
2022-08-18T17:32:03.637Z,76.40
2022-08-18T17:34:39.636Z,74.00
2022-08-18T17:37:11.165Z,76.10
2022-08-18T17:39:55.947Z,74.90
2022-08-18T17:42:25.763Z,76.50
2022-08-18T17:44:59.551Z,76.60
2022-08-18T17:47:38.120Z,76.50
2022-08-18T17:50:35.520Z,78.40
2022-08-18T17:53:06.400Z,76.90
2022-08-18T17:56:06.859Z,79.30
2022-08-18T17:58:48.117Z,81.10
2022-08-18T18:01:15.992Z,79.10
2022-08-18T18:03:44.305Z,80.50
2022-08-18T18:06:40.621Z,80.20
2022-08-18T18:09:28.571Z,82.50
2022-08-18T18:11:55.663Z,81.10
2022-08-18T18:14:39.515Z,81.60
2022-08-18T18:17:31.073Z,80.30
2022-08-18T18:20:39.467Z,81.90
2022-08-18T18:23:24.196Z,81.90
2022-08-18T18:25:51.433Z,81.70
2022-08-18T18:28:31.538Z,82.20
2022-08-18T18:31:16.866Z,81.20
2022-08-18T18:33:44.288Z,80.70
2022-08-18T18:36:11.527Z,83.70
2022-08-18T18:38:48.946Z,83.30
2022-08-18T18:41:27.744Z,83.90
2022-08-18T18:44:10.954Z,84.80
2022-08-18T18:46:53.502Z,85.10
2022-08-18T18:49:44.115Z,85.40
2022-08-18T18:52:47.954Z,85.90
2022-08-18T18:55:27.646Z,84.40
2022-08-18T18:58:27.558Z,85.00
2022-08-18T19:01:03.015Z,85.60
2022-08-18T19:03:40.174Z,85.80
2022-08-18T19:06:42.173Z,86.40
2022-08-18T19:09:35.342Z,85.90
2022-08-18T19:12:05.252Z,86.90
2022-08-18T19:14:39.918Z,85.70
2022-08-18T19:17:18.950Z,87.90
2022-08-18T19:20:09.750Z,88.40
2022-08-18T19:22:39.343Z,87.30
2022-08-18T19:25:26.076Z,87.50
2022-08-18T19:28:00.217Z,88.50
2022-08-18T19:30:29.253Z,88.60
2022-08-18T19:33:02.003Z,88.40
2022-08-18T19:36:06.093Z,88.30
2022-08-18T19:38:45.447Z,89.00
2022-08-18T19:41:33.162Z,89.10
2022-08-18T19:45:12.988Z,88.80
2022-08-18T19:48:05.008Z,89.40
2022-08-18T19:50:42.582Z,90.20
2022-08-18T19:54:04.228Z,90.40
2022-08-18T19:56:47.509Z,90.30
2022-08-18T19:59:42.950Z,90.10
2022-08-18T20:03:03.931Z,90.20
2022-08-18T20:06:34.519Z,90.40
2022-08-18T20:09:28.580Z,90.80
2022-08-18T20:12:16.078Z,90.20
2022-08-18T20:15:07.715Z,90.00
2022-08-18T20:17:57.494Z,91.10
2022-08-18T20:20:32.286Z,91.50
2022-08-18T20:23:01.061Z,91.10
2022-08-18T20:25:43.235Z,91.30
2022-08-18T20:28:10.937Z,90.90
2022-08-18T20:31:06.770Z,90.90
2022-08-18T20:33:47.193Z,91.10
2022-08-18T20:36:29.439Z,91.20
2022-08-18T20:38:59.946Z,90.80
2022-08-18T20:41:42.607Z,90.90
2022-08-18T20:44:37.992Z,91.00
2022-08-18T20:47:22.880Z,91.00
2022-08-18T20:50:46.115Z,91.30
2022-08-18T20:53:49.895Z,91.40
2022-08-18T20:56:43.404Z,91.60
2022-08-18T20:59:19.924Z,91.60
2022-08-18T21:02:00.784Z,91.50
2022-08-18T21:04:46.897Z,91.70
2022-08-18T21:07:36.151Z,91.80
2022-08-18T21:10:17.442Z,91.80
2022-08-18T21:12:53.573Z,91.90
2022-08-18T21:15:27.386Z,92.20
2022-08-18T21:18:18.365Z,92.20
2022-08-18T21:20:52.555Z,92.20
2022-08-18T21:23:31.717Z,92.20
2022-08-18T21:26:06.287Z,92.70
2022-08-18T21:28:38.764Z,92.60
2022-08-18T21:31:51.685Z,92.50
2022-08-18T21:34:44.770Z,92.60
2022-08-18T21:37:17.990Z,92.80
2022-08-18T21:39:55.639Z,92.80
2022-08-18T21:42:41.741Z,92.80
2022-08-18T21:45:22.395Z,92.90
2022-08-18T21:47:54.506Z,92.80
2022-08-18T21:50:24.895Z,93.10
2022-08-18T21:52:59.101Z,93.30
2022-08-18T21:55:54.951Z,93.20
2022-08-18T21:58:34.522Z,93.10
2022-08-18T22:01:10.611Z,93.50
2022-08-18T22:03:53.594Z,93.70
2022-08-18T22:06:40.501Z,93.80
2022-08-18T22:09:28.846Z,93.60
2022-08-18T22:12:42.378Z,93.70
2022-08-18T22:15:15.367Z,93.70
2022-08-18T22:18:05.549Z,93.80
2022-08-18T22:20:57.271Z,93.80
2022-08-18T22:24:05.539Z,93.60
2022-08-18T22:26:36.824Z,93.80
2022-08-18T22:29:06.497Z,93.80
2022-08-18T22:31:43.284Z,94.00
2022-08-18T22:34:27.369Z,94.30
2022-08-18T22:37:16.727Z,94.60
2022-08-18T22:39:47.948Z,94.40
2022-08-18T22:42:17.514Z,94.30
2022-08-18T22:44:44.889Z,94.30
2022-08-18T22:47:12.579Z,94.70
2022-08-18T22:49:40.049Z,93.90
2022-08-18T22:52:29.792Z,94.20
2022-08-18T22:55:06.595Z,93.40
2022-08-18T22:57:37.358Z,93.10
2022-08-18T23:00:12.489Z,93.70
2022-08-18T23:02:40.365Z,92.70
2022-08-18T23:05:08.115Z,92.70
2022-08-18T23:07:35.200Z,93.10
2022-08-18T23:10:02.321Z,93.30
2022-08-18T23:12:35.134Z,92.90
2022-08-18T23:15:09.625Z,94.20
2022-08-18T23:17:37.180Z,93.50
2022-08-18T23:20:08.410Z,92.70
2022-08-18T23:22:39.757Z,92.70
2022-08-18T23:25:09.415Z,93.20
2022-08-18T23:27:36.649Z,93.10
2022-08-18T23:30:05.204Z,92.80
2022-08-18T23:32:33.337Z,93.30
2022-08-18T23:35:00.884Z,93.70
2022-08-18T23:37:28.878Z,93.90
2022-08-18T23:39:55.966Z,93.40
2022-08-18T23:42:23.863Z,93.30
2022-08-18T23:44:50.969Z,93.30
2022-08-18T23:47:20.814Z,94.10
2022-08-18T23:49:48.196Z,93.90
2022-08-18T23:52:15.100Z,93.80
2022-08-18T23:54:42.025Z,93.40
2022-08-18T23:57:08.967Z,93.60
2022-08-18T23:59:36.559Z,93.60
